sensor_id;sensor_type;location;lat;lon;timestamp;P1;durP1;ratioP1;P2;durP2;ratioP2
43841;SDS011;29495;49.970;20.842;2024-02-04T01:22:38;5.35;;;3.65;;
43841;SDS011;29495;49.970;20.842;2024-02-04T01:25:05;5.00;;;3.80;;
43841;SDS011;29495;49.970;20.842;2024-02-04T01:30:00;5.60;;;3.63;;
43841;SDS011;29495;49.970;20.842;2024-02-04T01:55:01;7.28;;;3.65;;
43841;SDS011;29495;49.970;20.842;2024-02-04T01:57:43;6.97;;;3.80;;
43841;SDS011;29495;49.970;20.842;2024-02-04T02:00:15;4.75;;;3.97;;
43841;SDS011;29495;49.970;20.842;2024-02-04T02:02:47;4.93;;;3.80;;
43841;SDS011;29495;49.970;20.842;2024-02-04T02:05:50;3.53;;;3.17;;
43841;SDS011;29495;49.970;20.842;2024-02-04T02:08:26;5.63;;;3.75;;
43841;SDS011;29495;49.970;20.842;2024-02-04T02:10:58;4.45;;;3.15;;
43841;SDS011;29495;49.970;20.842;2024-02-04T02:16:28;4.65;;;3.25;;
43841;SDS011;29495;49.970;20.842;2024-02-04T02:19:01;5.43;;;2.83;;
43841;SDS011;29495;49.970;20.842;2024-02-04T02:27:00;4.03;;;2.55;;
43841;SDS011;29495;49.970;20.842;2024-02-04T02:29:41;4.65;;;3.10;;
43841;SDS011;29495;49.970;20.842;2024-02-04T02:32:23;3.50;;;2.45;;
43841;SDS011;29495;49.970;20.842;2024-02-04T04:04:35;2.22;;;1.98;;
43841;SDS011;29495;49.970;20.842;2024-02-04T04:08:49;3.95;;;2.90;;
43841;SDS011;29495;49.970;20.842;2024-02-04T04:16:13;2.78;;;2.55;;
43841;SDS011;29495;49.970;20.842;2024-02-04T04:20:08;3.67;;;2.67;;
43841;SDS011;29495;49.970;20.842;2024-02-04T04:22:35;5.07;;;3.38;;
43841;SDS011;29495;49.970;20.842;2024-02-04T04:25:06;4.32;;;3.20;;
43841;SDS011;29495;49.970;20.842;2024-02-04T06:13:23;2.47;;;1.50;;
43841;SDS011;29495;49.970;20.842;2024-02-04T06:15:49;5.70;;;1.85;;
43841;SDS011;29495;49.970;20.842;2024-02-04T06:18:15;4.50;;;1.63;;
43841;SDS011;29495;49.970;20.842;2024-02-04T06:20:41;2.25;;;1.60;;
43841;SDS011;29495;49.970;20.842;2024-02-04T06:23:07;2.10;;;1.60;;
43841;SDS011;29495;49.970;20.842;2024-02-04T06:25:34;2.92;;;1.88;;
43841;SDS011;29495;49.970;20.842;2024-02-04T06:28:03;4.50;;;1.55;;
43841;SDS011;29495;49.970;20.842;2024-02-04T06:32:58;2.05;;;1.50;;
43841;SDS011;29495;49.970;20.842;2024-02-04T06:35:27;7.25;;;2.33;;
43841;SDS011;29495;49.970;20.842;2024-02-04T06:37:53;2.55;;;1.58;;
43841;SDS011;29495;49.970;20.842;2024-02-04T06:40:20;3.30;;;1.77;;
43841;SDS011;29495;49.970;20.842;2024-02-04T06:42:46;2.75;;;1.30;;
43841;SDS011;29495;49.970;20.842;2024-02-04T06:45:24;4.18;;;2.17;;
43841;SDS011;29495;49.970;20.842;2024-02-04T10:00:15;7.10;;;1.55;;
43841;SDS011;29495;49.970;20.842;2024-02-04T10:02:47;6.82;;;2.00;;
43841;SDS011;29495;49.970;20.842;2024-02-04T10:05:15;4.78;;;1.70;;
43841;SDS011;29495;49.970;20.842;2024-02-04T10:07:44;6.15;;;1.70;;
43841;SDS011;29495;49.970;20.842;2024-02-04T10:10:16;6.00;;;1.92;;
43841;SDS011;29495;49.970;20.842;2024-02-04T10:13:16;7.25;;;2.28;;
43841;SDS011;29495;49.970;20.842;2024-02-04T10:15:42;5.55;;;2.15;;
43841;SDS011;29495;49.970;20.842;2024-02-04T10:18:12;5.63;;;2.20;;
43841;SDS011;29495;49.970;20.842;2024-02-04T10:20:44;2.67;;;1.67;;
43841;SDS011;29495;49.970;20.842;2024-02-04T10:23:23;6.50;;;2.22;;
43841;SDS011;29495;49.970;20.842;2024-02-04T10:26:01;4.97;;;2.00;;
43841;SDS011;29495;49.970;20.842;2024-02-04T10:28:54;5.18;;;1.67;;
43841;SDS011;29495;49.970;20.842;2024-02-04T10:31:36;5.82;;;2.13;;
43841;SDS011;29495;49.970;20.842;2024-02-04T10:34:09;5.38;;;1.67;;
43841;SDS011;29495;49.970;20.842;2024-02-04T10:37:04;5.97;;;2.05;;
43841;SDS011;29495;49.970;20.842;2024-02-04T10:40:24;3.55;;;1.48;;
43841;SDS011;29495;49.970;20.842;2024-02-04T10:42:50;3.22;;;1.70;;
43841;SDS011;29495;49.970;20.842;2024-02-04T10:45:19;3.03;;;1.65;;
43841;SDS011;29495;49.970;20.842;2024-02-04T10:47:53;6.97;;;2.45;;
43841;SDS011;29495;49.970;20.842;2024-02-04T10:50:25;5.30;;;1.70;;
43841;SDS011;29495;49.970;20.842;2024-02-04T10:53:15;6.53;;;2.13;;
43841;SDS011;29495;49.970;20.842;2024-02-04T11:00:00;6.63;;;2.00;;
43841;SDS011;29495;49.970;20.842;2024-02-04T12:09:43;6.90;;;2.65;;
43841;SDS011;29495;49.970;20.842;2024-02-04T12:12:12;2.70;;;1.77;;
43841;SDS011;29495;49.970;20.842;2024-02-04T12:14:39;5.32;;;2.53;;
43841;SDS011;29495;49.970;20.842;2024-02-04T12:17:11;4.30;;;1.95;;
43841;SDS011;29495;49.970;20.842;2024-02-04T12:19:37;3.10;;;2.08;;
43841;SDS011;29495;49.970;20.842;2024-02-04T12:22:09;6.07;;;2.00;;
43841;SDS011;29495;49.970;20.842;2024-02-04T12:24:59;4.68;;;1.92;;
43841;SDS011;29495;49.970;20.842;2024-02-04T12:27:26;6.45;;;2.22;;
43841;SDS011;29495;49.970;20.842;2024-02-04T12:29:52;5.65;;;2.20;;
43841;SDS011;29495;49.970;20.842;2024-02-04T12:32:23;5.05;;;2.42;;
43841;SDS011;29495;49.970;20.842;2024-02-04T12:34:56;6.88;;;2.17;;
43841;SDS011;29495;49.970;20.842;2024-02-04T12:37:34;3.67;;;2.00;;
43841;SDS011;29495;49.970;20.842;2024-02-04T12:40:39;3.88;;;1.95;;
43841;SDS011;29495;49.970;20.842;2024-02-04T12:43:22;5.55;;;2.30;;
43841;SDS011;29495;49.970;20.842;2024-02-04T12:45:55;4.78;;;2.20;;
43841;SDS011;29495;49.970;20.842;2024-02-04T12:48:50;4.25;;;1.92;;
43841;SDS011;29495;49.970;20.842;2024-02-04T12:51:41;4.47;;;2.30;;
43841;SDS011;29495;49.970;20.842;2024-02-04T12:56:48;5.82;;;2.40;;
43841;SDS011;29495;49.970;20.842;2024-02-04T12:59:29;6.93;;;2.22;;
43841;SDS011;29495;49.970;20.842;2024-02-04T13:05:22;3.70;;;2.03;;
43841;SDS011;29495;49.970;20.842;2024-02-04T13:08:00;4.00;;;1.65;;
43841;SDS011;29495;49.970;20.842;2024-02-04T14:19:01;3.90;;;3.03;;
43841;SDS011;29495;49.970;20.842;2024-02-04T14:21:32;6.35;;;3.58;;
43841;SDS011;29495;49.970;20.842;2024-02-04T14:23:58;5.65;;;3.25;;
43841;SDS011;29495;49.970;20.842;2024-02-04T14:26:25;7.88;;;3.60;;
43841;SDS011;29495;49.970;20.842;2024-02-04T14:28:54;6.72;;;3.88;;
43841;SDS011;29495;49.970;20.842;2024-02-04T14:31:20;8.73;;;3.50;;
43841;SDS011;29495;49.970;20.842;2024-02-04T14:33:46;6.60;;;4.38;;
43841;SDS011;29495;49.970;20.842;2024-02-04T14:36:13;8.55;;;4.47;;
43841;SDS011;29495;49.970;20.842;2024-02-04T14:38:39;6.50;;;4.47;;
43841;SDS011;29495;49.970;20.842;2024-02-04T14:41:05;6.97;;;4.13;;
43841;SDS011;29495;49.970;20.842;2024-02-04T14:43:31;9.20;;;5.20;;
43841;SDS011;29495;49.970;20.842;2024-02-04T14:45:58;8.55;;;4.72;;
43841;SDS011;29495;49.970;20.842;2024-02-04T14:52:58;8.85;;;5.03;;
43841;SDS011;29495;49.970;20.842;2024-02-04T15:01:31;10.70;;;6.38;;
43841;SDS011;29495;49.970;20.842;2024-02-04T15:04:56;10.10;;;5.72;;
43841;SDS011;29495;49.970;20.842;2024-02-04T15:17:15;6.28;;;4.13;;
